Aérodrome :
LOGIN :

S'inscrire | Disclaimer

   EN    FR    IT 

 










Légende :    VFR   VFR Marginal   IFR   IFR Intensif   IFR Très Intensif
Visi : 
Plafond : 
>= 8 km
>= 3000ft
5 à 8 km
1000 à 3000 ft
1500m à 5 km
500 à 1000 ft
800 à 1500m
200 à 500 ft
< 800m
< 200 ft
Symboles :   Orages  Brouillard  Fortes neiges  Fortes précipitations  Vent > 20 kt
SIGMETs :   Divers  Orages  Givrage  Turbulence  Onde Orograph.  Cendres Volcan.







- Altitude de l'aérodrome : 468 ft
- Code IATA : GRO


LEGE - Girona Costa Brava

DERNIER METAR :
  • 181430Z 20020KT 170V230 CAVOK 29/09 Q1012

METARs EXPIRÉS :
  • 181400Z 20022KT 170V230 CAVOK 29/08 Q1012
  • 181330Z 19023KT 9999 FEW040 29/09 Q1012
  • 181300Z 19019KT 160V220 9999 FEW040 30/10 Q1013
  • 181230Z 18021KT 150V210 9999 FEW040 29/07 Q1013
  • 181200Z 18018KT 9999 FEW040 29/09 Q1013

TAF TAF LEGE
Valide du 18 à 12h jusqu'au 19 à 12h UTC


181100Z 1812/1912 19015KT 9999 FEW030 TX33/1813Z TN18/1906Z
TEMPO 1812/1818 20020G32KT
BECMG 1817/1819 19006KT
BECMG 1909/1911 19012KT
Pas de NOTAMs connus pour ce terrain.



MET'MAP, la Météo Aéronautique d'un coup d'oeil ! - Copyright ORBIFLY Décembre 2007 - Disclaimer

ORBIFLY MET'MAP TEAM :

Programmation & Développement : Alexandra Zaïnal
Conception & Développement : Baudouin d'Aumeries
Co-Programmation & Développement : Marc-Olivier Méhu
Soutien technique & logistique : Manuel Goepfert

Contact : metmap@orbifly.com




SOURCES & CREDITS :

   NOAA